Time;durP1;ratioP1;P1;durP2;ratioP2;P2;SDS_P1;SDS_P2;PMS_P1;PMS_P2;Temp;Humidity;BMP_temperature;BMP_pressure;BME280_temperature;BME280_humidity;BME280_pressure;Samples;Min_cycle;Max_cycle;Signal;HPM_P1;HPM_P2
2021/09/07 00:00:44;;;;;;;33.45;17.73;;;;;;;14.78;80.30;102314.75;5085353;28;20460;-64
2021/09/07 00:03:10;;;;;;;30.35;16.20;;;;;;;14.83;79.90;102312.16;5085425;28;20524;-62
2021/09/07 00:05:35;;;;;;;31.60;17.15;;;;;;;14.73;80.09;102308.50;5083558;28;20441;-64
2021/09/07 00:08:00;;;;;;;30.13;16.63;;;;;;;14.78;80.44;102308.53;5086540;28;20031;-64
2021/09/07 00:10:26;;;;;;;32.10;16.90;;;;;;;14.76;80.54;102305.84;5082804;28;20020;-62
2021/09/07 00:12:51;;;;;;;30.85;16.00;;;;;;;14.70;80.02;102307.59;5085886;28;20047;-64
2021/09/07 00:15:17;;;;;;;32.55;17.20;;;;;;;14.74;79.75;102310.28;5083884;28;20016;-63
2021/09/07 00:17:43;;;;;;;31.75;17.77;;;;;;;14.76;80.87;102304.97;5084727;28;20016;-68
2021/09/07 00:20:09;;;;;;;32.15;17.02;;;;;;;14.68;80.08;102304.00;5085681;28;20489;-68
2021/09/07 00:22:35;;;;;;;30.73;16.20;;;;;;;14.62;79.91;102299.50;5083286;28;20020;-67
2021/09/07 00:25:01;;;;;;;30.67;16.13;;;;;;;14.62;79.88;102299.50;5085996;28;20024;-67
2021/09/07 00:27:26;;;;;;;32.70;17.05;;;;;;;14.58;80.33;102297.66;5082713;28;20024;-68
2021/09/07 00:29:52;;;;;;;31.52;16.10;;;;;;;14.56;80.12;102292.34;5085146;28;20444;-67
2021/09/07 00:32:17;;;;;;;33.30;17.33;;;;;;;14.63;80.89;102295.97;5083635;28;20077;-67
2021/09/07 00:34:42;;;;;;;32.03;16.70;;;;;;;14.62;80.68;102281.78;5084528;28;20093;-69
2021/09/07 00:37:08;;;;;;;30.58;16.63;;;;;;;14.55;80.39;102282.56;5084798;28;20017;-67
2021/09/07 00:39:33;;;;;;;33.22;17.95;;;;;;;14.48;80.97;102280.69;5083052;28;20063;-67
2021/09/07 00:41:59;;;;;;;31.25;17.05;;;;;;;14.44;81.08;102278.88;5067425;28;20377;-67
2021/09/07 00:44:25;;;;;;;33.85;16.67;;;;;;;14.36;81.19;102276.13;5082450;28;20032;-68
2021/09/07 00:46:58;;;;;;;30.95;16.45;;;;;;;14.35;81.41;102285.00;5085005;28;20027;-67
2021/09/07 00:49:25;;;;;;;32.75;17.67;;;;;;;14.24;82.42;102283.97;5081887;28;20505;-68
2021/09/07 00:51:51;;;;;;;30.88;16.98;;;;;;;14.21;82.35;102282.19;5084617;28;20054;-67
2021/09/07 00:54:20;;;;;;;30.80;17.42;;;;;;;14.19;81.99;102281.25;5083095;28;20399;-65
2021/09/07 00:56:46;;;;;;;31.83;17.10;;;;;;;14.15;82.30;102283.88;5084172;28;20036;-66
2021/09/07 00:59:13;;;;;;;31.88;17.67;;;;;;;14.15;82.93;102282.09;5083769;28;20157;-67
2021/09/07 01:01:39;;;;;;;30.80;17.15;;;;;;;14.11;82.78;102282.91;5083013;28;20020;-63
2021/09/07 01:04:04;;;;;;;31.63;17.20;;;;;;;14.12;82.99;102269.66;5085177;28;20419;-63
2021/09/07 01:06:31;;;;;;;30.83;17.23;;;;;;;14.09;82.41;102271.38;5081680;28;20033;-64
2021/09/07 01:08:57;;;;;;;29.42;16.33;;;;;;;14.15;82.24;102268.78;5081742;28;20031;-63
2021/09/07 01:11:22;;;;;;;31.80;17.15;;;;;;;14.08;82.96;102269.59;5084706;28;20032;-63
2021/09/07 01:13:48;;;;;;;29.95;17.05;;;;;;;14.03;82.72;102266.88;5082725;28;20516;-64
2021/09/07 01:16:14;;;;;;;33.05;17.98;;;;;;;14.11;83.17;102264.31;5083102;28;20540;-62
2021/09/07 01:18:40;;;;;;;30.58;17.52;;;;;;;14.12;82.21;102267.00;5084248;28;20028;-63
2021/09/07 01:21:13;;;;;;;31.00;17.38;;;;;;;14.10;81.89;102268.72;5082198;28;20379;-64
2021/09/07 01:23:42;;;;;;;30.48;16.75;;;;;;;14.00;82.01;102263.31;5084031;28;20474;-65
2021/09/07 01:26:09;;;;;;;32.83;18.25;;;;;;;13.93;83.74;102263.19;5082402;28;20028;-63
2021/09/07 01:28:35;;;;;;;32.90;18.52;;;;;;;13.95;84.16;102255.28;5084249;28;20027;-64
2021/09/07 01:31:02;;;;;;;34.15;19.58;;;;;;;13.97;85.12;102258.84;5081432;28;20032;-62
2021/09/07 01:33:28;;;;;;;32.80;18.83;;;;;;;13.93;84.74;102257.88;5081685;28;20096;-63
2021/09/07 01:35:57;;;;;;;32.40;18.65;;;;;;;13.87;84.02;102263.13;5084242;28;20490;-64
2021/09/07 01:38:24;;;;;;;33.08;18.25;;;;;;;13.81;84.26;102257.72;5081657;28;20546;-63
2021/09/07 01:40:50;;;;;;;33.30;19.27;;;;;;;13.79;85.10;102259.50;5083952;28;20017;-62
2021/09/07 01:43:16;;;;;;;32.67;19.08;;;;;;;13.74;85.06;102262.06;5082537;28;20035;-66
2021/09/07 01:45:45;;;;;;;37.03;20.48;;;;;;;13.81;86.28;102256.84;5082466;28;20032;-66
2021/09/07 01:48:11;;;;;;;32.97;18.52;;;;;;;13.85;84.80;102256.91;5083390;28;20055;-66
2021/09/07 01:50:36;;;;;;;31.63;17.52;;;;;;;13.68;83.76;102248.69;5081687;28;20032;-67
2021/09/07 01:53:01;;;;;;;32.22;18.05;;;;;;;13.66;84.19;102244.22;5084648;28;20032;-67
2021/09/07 01:55:27;;;;;;;32.08;17.90;;;;;;;13.66;84.46;102257.50;5081091;28;20021;-66
2021/09/07 01:57:52;;;;;;;32.25;18.15;;;;;;;13.67;84.52;102265.50;5083813;28;20032;-66
2021/09/07 02:00:18;;;;;;;33.25;18.35;;;;;;;13.51;85.39;102253.75;5081365;28;20032;-66
2021/09/07 02:02:43;;;;;;;31.27;17.42;;;;;;;13.53;84.73;102257.34;5082576;28;20029;-66
2021/09/07 02:05:09;;;;;;;33.25;18.23;;;;;;;13.46;85.66;102259.91;5083595;28;20016;-66
2021/09/07 02:07:34;;;;;;;35.35;19.05;;;;;;;13.45;86.16;102258.13;5081221;28;20471;-68
2021/09/07 02:09:59;;;;;;;31.92;19.08;;;;;;;13.45;85.82;102259.00;5084623;28;20023;-68
2021/09/07 02:12:25;;;;;;;31.58;17.83;;;;;;;13.46;84.97;102254.59;5081191;28;20028;-67
2021/09/07 02:14:50;;;;;;;31.50;18.27;;;;;;;13.48;84.62;102258.16;5083227;28;20071;-68
2021/09/07 02:17:16;;;;;;;31.77;18.13;;;;;;;13.34;84.89;102260.56;5082493;28;20035;-68
2021/09/07 02:19:41;;;;;;;31.55;18.70;;;;;;;13.34;85.32;102265.88;5082200;28;20115;-68
2021/09/07 02:22:06;;;;;;;35.40;19.98;;;;;;;13.28;87.29;102268.44;5083924;28;20026;-68
2021/09/07 02:24:32;;;;;;;33.85;19.42;;;;;;;13.28;87.22;102276.41;5080776;28;20033;-68
2021/09/07 02:26:57;;;;;;;32.25;18.13;;;;;;;13.20;86.47;102273.63;5084100;28;20028;-64
2021/09/07 02:29:22;;;;;;;31.25;17.45;;;;;;;13.25;85.91;102270.19;5081719;28;20382;-63
2021/09/07 02:31:48;;;;;;;34.03;18.17;;;;;;;13.25;85.67;102272.84;5082523;28;20024;-65
2021/09/07 02:34:13;;;;;;;31.77;18.45;;;;;;;13.24;86.31;102267.50;5082743;28;20506;-64
2021/09/07 02:36:38;;;;;;;33.72;19.75;;;;;;;13.21;86.16;102275.44;5081668;28;20056;-64
2021/09/07 02:39:04;;;;;;;36.83;22.08;;;;;;;13.09;88.01;102273.44;5084025;28;20024;-64
2021/09/07 02:41:30;;;;;;;36.50;20.10;;;;;;;13.03;88.46;102271.59;5080625;28;20074;-63
2021/09/07 02:43:55;;;;;;;36.67;22.13;;;;;;;12.95;90.63;102273.22;5083875;28;20406;-63
2021/09/07 02:46:20;;;;;;;37.53;21.80;;;;;;;12.95;90.74;102277.66;5081293;28;20048;-62
2021/09/07 02:48:46;;;;;;;37.05;22.33;;;;;;;13.03;90.58;102273.34;5082245;28;20460;-62
2021/09/07 02:51:11;;;;;;;35.97;21.13;;;;;;;12.96;90.11;102269.72;5082908;28;20123;-63
2021/09/07 02:53:36;;;;;;;36.25;22.65;;;;;;;12.91;90.86;102272.25;5081294;28;20043;-63
2021/09/07 02:56:02;;;;;;;35.83;21.35;;;;;;;12.88;90.30;102256.28;5084179;28;20024;-62
2021/09/07 02:58:27;;;;;;;37.10;23.67;;;;;;;12.83;91.86;102257.97;5080413;28;20036;-61
2021/09/07 03:00:52;;;;;;;41.42;25.60;;;;;;;12.83;93.66;102257.97;5083188;28;20032;-63
2021/09/07 03:03:18;;;;;;;40.97;25.70;;;;;;;12.80;94.99;102252.63;5081699;28;20041;-65
2021/09/07 03:05:43;;;;;;;41.60;27.38;;;;;;;12.84;96.65;102246.50;5081800;28;20459;-63
2021/09/07 03:08:08;;;;;;;38.92;23.50;;;;;;;12.85;93.80;102252.69;5082987;28;20031;-64
2021/09/07 03:10:34;;;;;;;36.70;22.73;;;;;;;12.93;92.42;102252.81;5080549;28;20021;-63
2021/09/07 03:12:59;;;;;;;36.47;21.92;;;;;;;12.89;92.46;102250.13;5086273;28;20016;-64
2021/09/07 03:15:25;;;;;;;35.90;22.40;;;;;;;12.91;92.61;102244.84;5084571;28;20017;-64
2021/09/07 03:17:50;;;;;;;36.60;22.23;;;;;;;12.96;92.38;102236.94;5086340;28;20028;-64
2021/09/07 03:20:16;;;;;;;37.75;21.92;;;;;;;13.05;92.02;102237.13;5085424;28;20112;-64
2021/09/07 03:22:41;;;;;;;36.83;22.83;;;;;;;13.03;92.67;102229.13;5066499;28;20029;-64
2021/09/07 03:25:07;;;;;;;39.72;24.40;;;;;;;13.13;93.03;102224.84;5086869;28;20066;-65
2021/09/07 03:27:33;;;;;;;37.58;22.40;;;;;;;13.20;93.18;102225.84;5083928;28;20424;-63
2021/09/07 03:29:58;;;;;;;40.65;25.80;;;;;;;13.24;93.16;102223.25;5083587;28;20102;-62
2021/09/07 03:32:23;;;;;;;39.35;23.70;;;;;;;13.31;92.92;102220.66;5086602;28;20479;-68
2021/09/07 03:34:49;;;;;;;39.42;25.33;;;;;;;13.41;92.60;102222.63;5084720;28;20026;-68
2021/09/07 03:37:14;;;;;;;40.75;25.88;;;;;;;13.40;93.78;102226.19;5085246;28;20376;-65
2021/09/07 03:39:39;;;;;;;41.13;25.17;;;;;;;13.49;93.47;102217.44;5086119;28;20050;-68
2021/09/07 03:42:05;;;;;;;39.28;23.98;;;;;;;13.51;93.90;102226.31;5083703;28;20016;-68
2021/09/07 03:44:30;;;;;;;38.50;23.75;;;;;;;13.63;94.07;102220.28;5068574;28;20081;-67
2021/09/07 03:46:55;;;;;;;38.45;23.58;;;;;;;13.68;93.66;102223.91;5083697;28;20100;-67
2021/09/07 03:49:21;;;;;;;40.22;24.88;;;;;;;13.66;94.63;102223.88;5085517;28;20033;-68
2021/09/07 03:51:46;;;;;;;39.97;24.75;;;;;;;13.75;94.49;102220.44;5085301;28;20032;-67
2021/09/07 03:54:11;;;;;;;38.83;24.20;;;;;;;13.72;95.43;102226.63;5084574;28;20064;-68
2021/09/07 03:56:37;;;;;;;37.95;24.98;;;;;;;13.73;95.46;102224.84;5086207;28;20051;-68
2021/09/07 03:59:03;;;;;;;40.88;25.80;;;;;;;13.68;96.30;102227.44;5083341;28;20480;-67
2021/09/07 04:01:29;;;;;;;38.58;24.52;;;;;;;13.72;95.88;102226.63;5083090;28;20062;-64
2021/09/07 04:03:54;;;;;;;37.53;23.60;;;;;;;13.85;95.58;102216.13;5085938;28;20032;-62
2021/09/07 04:06:19;;;;;;;38.80;24.70;;;;;;;13.81;94.44;102217.88;5084267;28;20154;-63
2021/09/07 04:08:45;;;;;;;40.35;26.15;;;;;;;13.73;95.06;102216.88;5084525;28;20038;-65
2021/09/07 04:11:10;;;;;;;39.97;25.90;;;;;;;13.63;95.95;102220.28;5085633;28;20016;-65
2021/09/07 04:13:35;;;;;;;40.15;26.08;;;;;;;13.71;95.42;102226.59;5083208;28;20026;-66
2021/09/07 04:16:01;;;;;;;38.70;24.98;;;;;;;13.56;96.66;102230.81;5086331;28;20077;-65
2021/09/07 04:18:26;;;;;;;41.70;26.85;;;;;;;13.53;96.57;102224.59;5083156;28;20074;-66
2021/09/07 04:20:51;;;;;;;40.28;27.42;;;;;;;13.51;97.38;102221.00;5085133;28;20048;-65
2021/09/07 04:23:17;;;;;;;39.97;25.85;;;;;;;13.50;97.54;102219.22;5083725;28;20469;-67
2021/09/07 04:25:43;;;;;;;39.67;24.40;;;;;;;13.45;97.89;102226.22;5083883;28;20472;-66
2021/09/07 04:28:08;;;;;;;41.38;27.13;;;;;;;13.37;99.20;102237.63;5085316;28;20020;-66
2021/09/07 04:30:34;;;;;;;41.10;26.98;;;;;;;13.33;100.00;102232.22;5082460;28;20032;-66
2021/09/07 04:32:59;;;;;;;44.83;28.70;;;;;;;13.24;100.00;102232.97;5086104;28;20536;-67
2021/09/07 04:35:24;;;;;;;43.25;29.00;;;;;;;13.32;100.00;102238.41;5082944;28;20017;-66
2021/09/07 04:37:50;;;;;;;42.38;28.58;;;;;;;13.31;100.00;102231.28;5084546;28;20034;-66
2021/09/07 04:40:16;;;;;;;40.45;27.00;;;;;;;13.18;100.00;102233.78;5084522;28;20020;-66
2021/09/07 04:42:42;;;;;;;44.40;29.58;;;;;;;13.15;100.00;102239.03;5083801;28;20043;-66
2021/09/07 04:45:08;;;;;;;42.60;28.92;;;;;;;13.12;100.00;102244.31;5085358;28;20402;-65
2021/09/07 04:47:33;;;;;;;40.38;28.38;;;;;;;13.12;100.00;102243.41;5082164;28;20029;-66
2021/09/07 04:49:59;;;;;;;39.75;27.58;;;;;;;13.08;100.00;102240.69;5082048;28;20024;-66
2021/09/07 04:52:24;;;;;;;43.97;30.63;;;;;;;13.07;100.00;102240.66;5085025;28;20039;-66
2021/09/07 04:54:50;;;;;;;42.67;29.50;;;;;;;13.09;100.00;102246.88;5083180;28;20033;-66
2021/09/07 04:57:15;;;;;;;41.45;27.60;;;;;;;13.07;99.66;102248.63;5083761;28;20056;-68
2021/09/07 04:59:40;;;;;;;42.25;28.67;;;;;;;13.08;100.00;102242.47;5084656;28;20035;-68
2021/09/07 05:02:06;;;;;;;42.72;28.77;;;;;;;13.08;99.41;102246.00;5082469;28;20032;-68
2021/09/07 05:04:31;;;;;;;42.67;28.35;;;;;;;13.11;99.45;102241.63;5085255;28;20085;-67
2021/09/07 05:06:57;;;;;;;39.63;26.80;;;;;;;13.10;100.00;102245.16;5082259;28;20036;-66
2021/09/07 05:09:22;;;;;;;42.38;28.50;;;;;;;13.09;100.00;102246.88;5084151;28;20028;-67
2021/09/07 05:11:47;;;;;;;40.50;27.80;;;;;;;13.10;100.00;102240.72;5083081;28;20126;-67
2021/09/07 05:14:13;;;;;;;40.67;26.95;;;;;;;13.16;98.18;102251.44;5083058;28;20024;-67
2021/09/07 05:16:38;;;;;;;38.65;25.75;;;;;;;13.12;99.13;102252.28;5084651;28;20115;-66
2021/09/07 05:19:04;;;;;;;43.58;28.70;;;;;;;13.05;100.00;102247.72;5081598;28;20029;-66
2021/09/07 05:21:29;;;;;;;40.47;26.60;;;;;;;13.07;99.70;102251.28;5081721;28;20470;-66
2021/09/07 05:23:54;;;;;;;40.97;26.17;;;;;;;13.09;99.25;102249.53;5084321;28;20024;-66
2021/09/07 05:26:20;;;;;;;40.92;26.23;;;;;;;13.15;100.00;102256.72;5082772;28;20028;-67
2021/09/07 05:28:45;;;;;;;43.83;26.52;;;;;;;13.12;99.00;102248.72;5083135;28;20020;-66
2021/09/07 05:31:11;;;;;;;42.88;27.70;;;;;;;13.13;99.60;102251.38;5083796;28;20036;-66
2021/09/07 05:33:36;;;;;;;42.22;27.25;;;;;;;13.18;99.70;102251.47;5081794;28;20460;-66
2021/09/07 05:36:01;;;;;;;44.35;27.90;;;;;;;13.24;100.00;102255.09;5084654;28;20089;-66
2021/09/07 05:38:27;;;;;;;42.00;27.83;;;;;;;13.29;99.77;102254.28;5081509;28;20055;-66
2021/09/07 05:40:53;;;;;;;39.90;26.73;;;;;;;13.33;99.24;102249.03;5084019;28;20070;-65
2021/09/07 05:43:18;;;;;;;43.25;27.88;;;;;;;13.42;99.76;102251.88;5082521;28;20467;-66
2021/09/07 05:45:44;;;;;;;41.60;26.85;;;;;;;13.58;98.45;102255.63;5082405;28;20112;-66
2021/09/07 05:48:09;;;;;;;46.47;28.10;;;;;;;13.73;97.26;102251.41;5083863;28;20040;-64
2021/09/07 05:50:34;;;;;;;42.55;27.75;;;;;;;13.77;97.66;102258.56;5079658;28;20115;-69
2021/09/07 05:53:01;;;;;;;44.60;28.35;;;;;;;13.89;98.00;102271.13;5087678;28;20431;-61
2021/09/07 05:55:26;;;;;;;46.55;30.77;;;;;;;13.91;98.36;102277.38;5086147;28;20467;-62
2021/09/07 05:57:53;;;;;;;46.53;33.60;;;;;;;13.96;98.65;102262.34;5088367;28;20028;-61
2021/09/07 06:00:19;;;;;;;43.75;30.40;;;;;;;13.98;98.26;102260.63;5088302;28;20024;-62
2021/09/07 06:02:44;;;;;;;43.53;32.42;;;;;;;14.03;98.77;102260.69;5082716;28;20604;-63
2021/09/07 06:05:10;;;;;;;47.70;33.72;;;;;;;14.00;100.00;102269.50;5087479;28;20585;-61
2021/09/07 06:07:36;;;;;;;47.22;33.53;;;;;;;14.11;100.00;102259.91;5068016;28;20127;-63
2021/09/07 06:10:02;;;;;;;47.90;34.33;;;;;;;14.14;100.00;102256.38;5088486;28;20107;-63
2021/09/07 06:12:27;;;;;;;48.17;33.60;;;;;;;14.22;100.00;102260.00;5088908;28;20035;-62
2021/09/07 06:14:53;;;;;;;49.58;36.70;;;;;;;14.27;100.00;102260.97;5087906;28;20020;-62
2021/09/07 06:17:18;;;;;;;51.20;37.13;;;;;;;14.32;100.00;102257.47;5070286;28;20459;-63
2021/09/07 06:19:44;;;;;;;50.67;37.03;;;;;;;14.36;100.00;102261.94;5085715;28;20028;-63
2021/09/07 06:22:09;;;;;;;53.13;39.53;;;;;;;14.46;100.00;102266.50;5088397;28;20417;-61
2021/09/07 06:24:34;;;;;;;50.85;37.65;;;;;;;14.52;100.00;102269.22;5088540;28;20412;-63
2021/09/07 06:27:00;;;;;;;53.42;40.35;;;;;;;14.55;100.00;102269.25;5090519;28;20023;-63
2021/09/07 06:29:25;;;;;;;53.80;42.63;;;;;;;14.57;100.00;102266.59;5069129;28;20415;-62
2021/09/07 06:31:51;;;;;;;54.13;43.70;;;;;;;14.58;100.00;102263.97;5086100;28;20063;-62
2021/09/07 06:34:16;;;;;;;52.75;41.13;;;;;;;14.69;100.00;102261.41;5084854;28;20016;-61
2021/09/07 06:36:41;;;;;;;55.88;43.63;;;;;;;14.73;100.00;102267.69;5085996;28;20020;-63
2021/09/07 06:39:09;;;;;;;61.72;48.33;;;;;;;14.79;100.00;102265.97;5088717;28;20090;-63
2021/09/07 06:41:34;;;;;;;59.63;48.20;;;;;;;14.89;100.00;102263.41;5071133;28;20470;-62
2021/09/07 06:43:59;;;;;;;60.78;49.15;;;;;;;14.96;100.00;102260.78;5090130;28;20035;-61
2021/09/07 06:46:25;;;;;;;62.85;50.97;;;;;;;15.05;100.00;102267.97;5087754;28;20021;-62
2021/09/07 06:48:50;;;;;;;61.75;49.47;;;;;;;15.18;100.00;102273.41;5094801;28;20093;-63
2021/09/07 06:51:15;;;;;;;61.75;50.63;;;;;;;15.28;100.00;102278.81;5091779;28;20032;-63
2021/09/07 06:53:41;;;;;;;59.63;50.33;;;;;;;15.41;99.38;102276.25;5092896;28;20093;-62
2021/09/07 06:56:06;;;;;;;64.55;53.75;;;;;;;15.51;99.89;102278.97;5091927;28;20075;-61
2021/09/07 06:58:31;;;;;;;63.17;51.70;;;;;;;15.66;98.79;102282.63;5087587;28;20016;-63
2021/09/07 07:00:57;;;;;;;64.78;51.20;;;;;;;15.80;97.05;102275.63;5090606;28;20020;-63
2021/09/07 07:03:22;;;;;;;62.38;50.05;;;;;;;15.97;94.67;102278.34;5090096;28;20517;-63
2021/09/07 07:05:48;;;;;;;63.35;50.30;;;;;;;16.09;93.30;102273.97;5087770;28;20470;-62
2021/09/07 07:08:13;;;;;;;60.88;49.78;;;;;;;16.23;91.10;102272.25;5093541;28;20463;-62
2021/09/07 07:10:38;;;;;;;61.35;49.17;;;;;;;16.50;90.31;102275.91;5091520;28;20046;-64
2021/09/07 07:13:04;;;;;;;59.67;48.95;;;;;;;16.78;88.99;102281.28;5091426;28;20613;-62
2021/09/07 07:15:29;;;;;;;62.17;48.58;;;;;;;17.03;88.58;102272.41;5086215;28;20368;-63
2021/09/07 07:17:55;;;;;;;56.30;44.83;;;;;;;17.22;86.14;102281.31;5086358;28;20509;-62
2021/09/07 07:20:20;;;;;;;58.33;44.90;;;;;;;17.55;86.55;102273.28;5091757;28;20024;-62
2021/09/07 07:22:45;;;;;;;55.88;42.92;;;;;;;17.79;84.03;102274.97;5088454;28;20067;-62
2021/09/07 07:25:11;;;;;;;56.10;41.40;;;;;;;17.93;82.30;102275.84;5085287;28;20108;-61
2021/09/07 07:27:39;;;;;;;55.00;39.63;;;;;;;17.98;81.11;102282.97;5088910;28;20104;-61
2021/09/07 07:30:06;;;;;;;62.67;41.65;;;;;;;18.01;81.93;102286.50;5089970;28;20063;-61
2021/09/07 07:32:32;;;;;;;55.30;41.05;;;;;;;18.11;81.56;102285.63;5085613;28;20078;-64
2021/09/07 07:34:57;;;;;;;56.58;40.60;;;;;;;18.30;79.80;102298.88;5087517;28;20024;-65
2021/09/07 07:37:22;;;;;;;57.45;39.05;;;;;;;18.52;78.77;102288.94;5087642;28;20103;-66
2021/09/07 07:39:48;;;;;;;55.90;40.55;;;;;;;18.62;78.70;102292.47;5090229;28;20024;-65
2021/09/07 07:42:13;;;;;;;55.22;41.85;;;;;;;18.66;78.68;102296.03;5089736;28;20024;-66
2021/09/07 07:44:38;;;;;;;55.75;41.47;;;;;;;18.75;78.57;102298.63;5084054;28;20020;-66
2021/09/07 07:47:04;;;;;;;57.80;40.40;;;;;;;18.86;77.34;102302.16;5086325;28;20455;-67
2021/09/07 07:49:29;;;;;;;55.95;40.55;;;;;;;18.92;77.93;102296.75;5082770;28;20045;-66
2021/09/07 07:51:55;;;;;;;55.13;41.53;;;;;;;19.08;77.56;102305.56;5086337;28;20027;-66
2021/09/07 07:54:21;;;;;;;54.60;41.03;;;;;;;19.20;77.62;102304.56;5083809;28;20024;-67
2021/09/07 07:56:46;;;;;;;52.88;39.72;;;;;;;19.29;76.91;102308.97;5084827;28;20103;-67
2021/09/07 07:59:11;;;;;;;53.78;39.10;;;;;;;19.53;74.87;102305.16;5084033;28;20387;-66
2021/09/07 08:01:36;;;;;;;54.85;40.80;;;;;;;19.72;75.26;102313.00;5083394;28;20107;-67
2021/09/07 08:04:02;;;;;;;57.45;41.63;;;;;;;19.88;74.25;102305.69;5086814;28;20027;-67
2021/09/07 08:06:27;;;;;;;57.47;42.58;;;;;;;19.99;74.22;102318.13;5082954;28;20025;-67
2021/09/07 08:08:52;;;;;;;55.88;40.72;;;;;;;20.19;72.47;102316.97;5085551;28;20024;-67
2021/09/07 08:11:18;;;;;;;56.05;40.75;;;;;;;20.27;72.25;102320.47;5083906;28;20432;-64
2021/09/07 08:13:43;;;;;;;55.47;41.30;;;;;;;20.47;71.42;102317.47;5084218;28;20099;-65
2021/09/07 08:16:09;;;;;;;57.05;40.95;;;;;;;20.57;71.33;102320.94;5085294;28;20446;-66
2021/09/07 08:18:34;;;;;;;56.00;40.20;;;;;;;20.59;69.69;102318.22;5083074;28;20074;-64
2021/09/07 08:21:00;;;;;;;56.90;40.15;;;;;;;20.65;69.62;102313.66;5086390;28;20379;-65
2021/09/07 08:23:25;;;;;;;55.55;40.80;;;;;;;20.65;68.70;102319.03;5083375;28;20024;-65
2021/09/07 08:25:51;;;;;;;55.10;40.45;;;;;;;20.78;67.67;102317.09;5085436;28;20016;-66
2021/09/07 08:28:16;;;;;;;54.22;40.17;;;;;;;20.92;68.26;102318.69;5084231;28;20463;-66
2021/09/07 08:30:42;;;;;;;57.35;42.42;;;;;;;21.13;68.24;102314.75;5087520;28;20035;-67
2021/09/07 08:33:14;;;;;;;54.28;40.88;;;;;;;21.09;67.56;102307.66;5088607;28;20024;-63
2021/09/07 08:35:41;;;;;;;54.60;40.33;;;;;;;21.24;67.21;102324.41;5089487;28;20103;-67
2021/09/07 08:38:06;;;;;;;53.00;40.13;;;;;;;21.51;66.73;102311.44;5090172;28;20099;-66
2021/09/07 08:40:31;;;;;;;56.58;39.78;;;;;;;21.78;66.44;102311.81;5088458;28;20030;-62
2021/09/07 08:42:57;;;;;;;55.67;40.67;;;;;;;22.02;65.15;102306.84;5087202;28;20374;-65
2021/09/07 08:45:23;;;;;;;55.50;38.65;;;;;;;22.19;64.00;102312.78;5087854;28;20020;-62
2021/09/07 08:47:49;;;;;;;55.00;37.38;;;;;;;22.33;62.84;102312.50;5085159;28;20044;-63
2021/09/07 08:50:14;;;;;;;50.65;35.55;;;;;;;22.43;61.48;102300.63;5087186;28;20032;-67
2021/09/07 08:52:41;;;;;;;50.47;35.60;;;;;;;22.42;60.86;102306.03;5088987;28;20027;-62
2021/09/07 08:55:06;;;;;;;51.28;34.08;;;;;;;22.54;61.19;102305.78;5091105;28;20016;-62
2021/09/07 08:57:32;;;;;;;49.35;32.75;;;;;;;22.69;60.25;102311.69;5067641;28;20023;-62
2021/09/07 09:00:04;;;;;;;45.92;32.42;;;;;;;23.18;59.61;102312.34;5087054;28;20055;-62
2021/09/07 09:02:29;;;;;;;47.15;33.08;;;;;;;23.61;57.32;102317.50;5086305;28;20042;-69
2021/09/07 09:04:57;;;;;;;48.20;31.45;;;;;;;23.78;56.92;102325.16;5087886;28;20024;-69
2021/09/07 09:07:28;;;;;;;47.30;31.85;;;;;;;24.61;55.92;102315.56;5088089;28;20024;-67
2021/09/07 09:09:54;;;;;;;45.78;30.08;;;;;;;25.16;51.85;102321.00;5087902;28;20024;-68
2021/09/07 09:12:39;;;;;;;46.20;31.00;;;;;;;25.32;54.02;102306.03;5085627;28;20024;-67
2021/09/07 09:15:16;;;;;;;50.17;32.50;;;;;;;25.08;54.56;102310.44;5066377;28;20032;-66
2021/09/07 09:17:42;;;;;;;44.58;31.00;;;;;;;25.42;53.09;102309.31;5081239;28;20032;-66
2021/09/07 09:20:18;;;;;;;45.40;30.17;;;;;;;25.78;52.53;102310.75;5085000;28;20034;-66
2021/09/07 09:22:50;;;;;;;44.25;29.55;;;;;;;25.88;50.13;102313.06;5081592;28;20039;-68
2021/09/07 09:25:22;;;;;;;42.85;28.02;;;;;;;26.27;49.41;102314.31;5081368;28;20058;-67
2021/09/07 09:28:06;;;;;;;46.15;31.67;;;;;;;26.70;48.40;102309.94;5081728;28;20420;-67
2021/09/07 09:30:41;;;;;;;43.38;26.50;;;;;;;27.11;44.93;102311.88;5083762;28;20035;-67
2021/09/07 09:33:07;;;;;;;41.38;26.35;;;;;;;26.82;44.40;102304.97;5089931;28;20024;-69
2021/09/07 09:35:43;;;;;;;40.22;24.85;;;;;;;26.79;46.61;102304.16;5081561;28;20031;-69
2021/09/07 09:38:09;;;;;;;40.65;25.23;;;;;;;26.57;44.04;102306.81;5079590;28;20020;-69
2021/09/07 09:40:34;;;;;;;40.70;24.77;;;;;;;26.41;44.66;102295.69;5082749;28;20051;-70
2021/09/07 09:43:42;;;;;;;43.17;24.80;;;;;;;26.68;44.97;102306.44;5067570;28;20395;-68
2021/09/07 09:46:19;;;;;;;40.70;24.48;;;;;;;27.42;43.57;102311.50;5082086;28;20012;-70
2021/09/07 09:48:45;;;;;;;41.25;25.15;;;;;;;28.41;40.48;102312.44;5088451;28;20061;-70
2021/09/07 09:51:15;;;;;;;38.17;24.27;;;;;;;29.26;38.11;102305.56;5087278;28;20475;-71
2021/09/07 09:53:42;;;;;;;43.03;24.58;;;;;;;29.76;37.19;102309.28;5086423;28;20476;-70
2021/09/07 09:56:08;;;;;;;39.03;24.95;;;;;;;30.42;35.86;102293.88;5087183;28;20063;-69
2021/09/07 09:58:34;;;;;;;38.85;24.08;;;;;;;30.90;35.14;102297.47;5085771;28;20065;-69
2021/09/07 10:01:00;;;;;;;38.72;23.63;;;;;;;31.22;33.48;102296.50;5088876;28;20032;-67
2021/09/07 10:03:27;;;;;;;39.40;23.65;;;;;;;31.02;32.60;102295.88;5084702;28;20137;-64
2021/09/07 10:05:53;;;;;;;39.35;24.45;;;;;;;31.02;33.24;102290.41;5087979;28;20437;-64
2021/09/07 10:08:19;;;;;;;38.63;23.08;;;;;;;31.37;31.92;102295.59;5087938;28;20016;-64
2021/09/07 10:11:09;;;;;;;38.08;23.58;;;;;;;32.11;32.64;102284.63;5089187;28;20035;-64
2021/09/07 10:13:35;;;;;;;40.95;24.67;;;;;;;32.40;30.95;102295.53;5084385;28;20477;-64
2021/09/07 10:16:10;;;;;;;36.72;22.05;;;;;;;32.70;29.87;102289.06;5086582;28;20460;-65
2021/09/07 10:18:53;;;;;;;37.15;22.08;;;;;;;33.31;31.13;102287.59;5086792;28;20035;-65
2021/09/07 10:26:38;;;;;;;37.05;23.85;;;;;;;34.59;28.34;102277.50;4989102;28;20030;-65
2021/09/07 10:29:08;;;;;;;39.75;23.08;;;;;;;35.28;27.29;102281.41;4985624;28;20093;-66
2021/09/07 10:31:39;;;;;;;36.45;21.85;;;;;;;35.08;26.64;102278.34;4984034;28;20038;-66
2021/09/07 10:34:04;;;;;;;36.05;22.65;;;;;;;35.20;27.76;102282.00;4969732;28;20030;-65
2021/09/07 10:36:36;;;;;;;36.55;22.38;;;;;;;35.16;26.22;102277.78;4984469;28;20104;-65
2021/09/07 10:39:07;;;;;;;33.25;20.33;;;;;;;34.99;27.18;102270.84;4985429;28;20102;-65
2021/09/07 10:41:32;;;;;;;35.58;21.50;;;;;;;35.21;26.36;102270.03;4984343;28;20038;-65
2021/09/07 10:44:02;;;;;;;35.13;21.83;;;;;;;35.73;25.12;102265.88;4985257;28;20486;-66
2021/09/07 10:46:47;;;;;;;36.13;21.90;;;;;;;36.13;26.48;102257.16;4984830;28;20557;-66
2021/09/07 10:49:22;;;;;;;34.60;21.13;;;;;;;35.75;26.15;102255.66;4986615;28;20050;-65
2021/09/07 10:52:05;;;;;;;33.38;20.23;;;;;;;36.06;26.85;102257.78;4986737;28;20027;-65
2021/09/07 10:54:32;;;;;;;35.65;21.58;;;;;;;35.99;24.72;102254.66;4984538;28;20030;-65
2021/09/07 10:56:59;;;;;;;34.67;20.92;;;;;;;36.29;25.63;102253.13;4984876;28;20355;-66
2021/09/07 10:59:47;;;;;;;36.17;23.88;;;;;;;36.53;26.64;102252.94;4984941;28;20059;-66
2021/09/07 11:02:35;;;;;;;36.28;21.90;;;;;;;37.38;24.65;102247.56;5078798;28;20056;-65
2021/09/07 11:05:05;;;;;;;34.55;19.40;;;;;;;36.20;24.82;102245.63;5070200;28;20039;-65
2021/09/07 11:07:37;;;;;;;30.77;18.30;;;;;;;34.84;26.03;102237.22;5086572;28;20016;-66
2021/09/07 11:10:04;;;;;;;32.72;19.15;;;;;;;34.31;26.51;102237.53;5085561;28;20378;-66
2021/09/07 11:12:33;;;;;;;33.95;18.48;;;;;;;35.00;27.44;102242.38;5085897;28;20020;-66